sensor_id;sensor_type;location;lat;lon;timestamp;P1;durP1;ratioP1;P2;durP2;ratioP2
67352;SDS011;54238;52.278;21.056;2023-04-23T00:02:14;33.30;;;19.30;;
67352;SDS011;54238;52.278;21.056;2023-04-23T00:04:53;31.40;;;17.70;;
67352;SDS011;54238;52.278;21.056;2023-04-23T00:07:23;33.20;;;19.70;;
67352;SDS011;54238;52.278;21.056;2023-04-23T00:09:55;29.20;;;18.00;;
67352;SDS011;54238;52.278;21.056;2023-04-23T00:12:27;32.70;;;19.10;;
67352;SDS011;54238;52.278;21.056;2023-04-23T00:15:00;36.20;;;19.00;;
67352;SDS011;54238;52.278;21.056;2023-04-23T00:17:31;32.40;;;18.00;;
67352;SDS011;54238;52.278;21.056;2023-04-23T00:19:58;34.20;;;19.20;;
67352;SDS011;54238;52.278;21.056;2023-04-23T00:22:27;33.30;;;18.00;;
67352;SDS011;54238;52.278;21.056;2023-04-23T00:24:56;34.90;;;17.90;;
67352;SDS011;54238;52.278;21.056;2023-04-23T00:27:28;31.10;;;19.40;;
67352;SDS011;54238;52.278;21.056;2023-04-23T00:29:55;35.40;;;20.00;;
67352;SDS011;54238;52.278;21.056;2023-04-23T00:32:27;34.20;;;20.50;;
67352;SDS011;54238;52.278;21.056;2023-04-23T00:35:00;32.10;;;18.90;;
67352;SDS011;54238;52.278;21.056;2023-04-23T00:37:33;34.00;;;18.70;;
67352;SDS011;54238;52.278;21.056;2023-04-23T00:40:02;30.80;;;18.80;;
67352;SDS011;54238;52.278;21.056;2023-04-23T00:42:37;37.80;;;19.30;;
67352;SDS011;54238;52.278;21.056;2023-04-23T00:45:06;29.60;;;17.90;;
67352;SDS011;54238;52.278;21.056;2023-04-23T00:47:41;29.70;;;18.60;;
67352;SDS011;54238;52.278;21.056;2023-04-23T00:50:11;33.00;;;19.20;;
67352;SDS011;54238;52.278;21.056;2023-04-23T00:52:38;34.50;;;18.40;;
67352;SDS011;54238;52.278;21.056;2023-04-23T00:55:07;36.20;;;18.20;;
67352;SDS011;54238;52.278;21.056;2023-04-23T00:57:35;31.40;;;20.40;;
67352;SDS011;54238;52.278;21.056;2023-04-23T01:00:08;30.50;;;17.70;;
67352;SDS011;54238;52.278;21.056;2023-04-23T01:02:40;32.90;;;18.40;;
67352;SDS011;54238;52.278;21.056;2023-04-23T01:05:09;31.00;;;18.20;;
67352;SDS011;54238;52.278;21.056;2023-04-23T01:07:40;39.30;;;19.30;;
67352;SDS011;54238;52.278;21.056;2023-04-23T01:10:13;35.40;;;19.80;;
67352;SDS011;54238;52.278;21.056;2023-04-23T01:12:40;30.60;;;19.40;;
67352;SDS011;54238;52.278;21.056;2023-04-23T01:15:12;34.30;;;20.50;;
67352;SDS011;54238;52.278;21.056;2023-04-23T01:17:44;39.60;;;20.50;;
67352;SDS011;54238;52.278;21.056;2023-04-23T01:23:06;33.40;;;19.50;;
67352;SDS011;54238;52.278;21.056;2023-04-23T01:25:38;33.40;;;19.90;;
67352;SDS011;54238;52.278;21.056;2023-04-23T01:30:44;39.90;;;19.50;;
67352;SDS011;54238;52.278;21.056;2023-04-23T01:33:12;36.20;;;18.50;;
67352;SDS011;54238;52.278;21.056;2023-04-23T01:35:42;32.40;;;19.20;;
67352;SDS011;54238;52.278;21.056;2023-04-23T01:38:13;33.40;;;18.90;;
67352;SDS011;54238;52.278;21.056;2023-04-23T01:40:41;32.20;;;19.90;;
67352;SDS011;54238;52.278;21.056;2023-04-23T01:43:08;34.20;;;20.50;;
67352;SDS011;54238;52.278;21.056;2023-04-23T01:45:38;36.10;;;20.10;;
67352;SDS011;54238;52.278;21.056;2023-04-23T01:48:14;31.00;;;19.50;;
67352;SDS011;54238;52.278;21.056;2023-04-23T01:50:41;34.60;;;17.70;;
67352;SDS011;54238;52.278;21.056;2023-04-23T01:53:11;31.90;;;18.30;;
67352;SDS011;54238;52.278;21.056;2023-04-23T01:55:44;31.80;;;19.30;;
67352;SDS011;54238;52.278;21.056;2023-04-23T01:58:17;34.60;;;19.40;;
67352;SDS011;54238;52.278;21.056;2023-04-23T02:00:51;36.30;;;19.30;;
67352;SDS011;54238;52.278;21.056;2023-04-23T02:03:20;31.40;;;19.30;;
67352;SDS011;54238;52.278;21.056;2023-04-23T02:05:55;27.20;;;18.00;;
67352;SDS011;54238;52.278;21.056;2023-04-23T02:08:30;29.70;;;17.80;;
67352;SDS011;54238;52.278;21.056;2023-04-23T02:10:59;31.50;;;19.10;;
67352;SDS011;54238;52.278;21.056;2023-04-23T02:13:26;33.30;;;19.00;;
67352;SDS011;54238;52.278;21.056;2023-04-23T02:16:01;34.00;;;19.00;;
67352;SDS011;54238;52.278;21.056;2023-04-23T02:18:33;32.40;;;18.70;;
67352;SDS011;54238;52.278;21.056;2023-04-23T02:21:02;35.00;;;18.50;;
67352;SDS011;54238;52.278;21.056;2023-04-23T02:23:32;35.70;;;20.20;;
67352;SDS011;54238;52.278;21.056;2023-04-23T02:25:59;34.40;;;19.50;;
67352;SDS011;54238;52.278;21.056;2023-04-23T02:28:26;29.90;;;17.00;;
67352;SDS011;54238;52.278;21.056;2023-04-23T02:30:53;34.40;;;20.00;;
67352;SDS011;54238;52.278;21.056;2023-04-23T02:33:25;35.20;;;19.50;;
67352;SDS011;54238;52.278;21.056;2023-04-23T02:35:56;28.00;;;17.20;;
67352;SDS011;54238;52.278;21.056;2023-04-23T02:38:31;30.50;;;18.50;;
67352;SDS011;54238;52.278;21.056;2023-04-23T02:41:02;35.60;;;19.80;;
67352;SDS011;54238;52.278;21.056;2023-04-23T02:43:34;34.10;;;18.90;;
67352;SDS011;54238;52.278;21.056;2023-04-23T02:46:06;30.30;;;17.70;;
67352;SDS011;54238;52.278;21.056;2023-04-23T02:48:38;27.40;;;18.10;;
67352;SDS011;54238;52.278;21.056;2023-04-23T02:51:12;31.20;;;18.50;;
67352;SDS011;54238;52.278;21.056;2023-04-23T02:53:41;31.40;;;19.20;;
67352;SDS011;54238;52.278;21.056;2023-04-23T02:56:13;28.20;;;17.30;;
67352;SDS011;54238;52.278;21.056;2023-04-23T02:58:48;31.30;;;18.10;;
67352;SDS011;54238;52.278;21.056;2023-04-23T03:01:17;32.40;;;20.00;;
67352;SDS011;54238;52.278;21.056;2023-04-23T03:03:49;33.80;;;18.40;;
67352;SDS011;54238;52.278;21.056;2023-04-23T03:06:21;25.00;;;15.70;;
67352;SDS011;54238;52.278;21.056;2023-04-23T03:08:54;28.20;;;18.60;;
67352;SDS011;54238;52.278;21.056;2023-04-23T03:11:26;29.40;;;16.90;;
67352;SDS011;54238;52.278;21.056;2023-04-23T03:13:57;34.70;;;18.40;;
67352;SDS011;54238;52.278;21.056;2023-04-23T03:16:30;27.60;;;16.50;;
67352;SDS011;54238;52.278;21.056;2023-04-23T03:18:58;29.30;;;16.50;;
67352;SDS011;54238;52.278;21.056;2023-04-23T03:21:26;28.80;;;17.20;;
67352;SDS011;54238;52.278;21.056;2023-04-23T03:24:02;26.90;;;16.80;;
67352;SDS011;54238;52.278;21.056;2023-04-23T03:26:29;26.20;;;17.90;;
67352;SDS011;54238;52.278;21.056;2023-04-23T03:28:56;30.90;;;18.20;;
67352;SDS011;54238;52.278;21.056;2023-04-23T03:31:30;28.70;;;16.10;;
67352;SDS011;54238;52.278;21.056;2023-04-23T03:33:57;28.40;;;17.20;;
67352;SDS011;54238;52.278;21.056;2023-04-23T03:36:25;23.80;;;15.80;;
67352;SDS011;54238;52.278;21.056;2023-04-23T03:38:54;29.80;;;16.80;;
67352;SDS011;54238;52.278;21.056;2023-04-23T03:41:23;27.60;;;15.70;;
67352;SDS011;54238;52.278;21.056;2023-04-23T03:43:54;29.90;;;17.20;;
67352;SDS011;54238;52.278;21.056;2023-04-23T03:46:21;31.70;;;16.90;;
67352;SDS011;54238;52.278;21.056;2023-04-23T03:48:54;26.80;;;16.90;;
67352;SDS011;54238;52.278;21.056;2023-04-23T03:51:25;30.20;;;17.20;;
67352;SDS011;54238;52.278;21.056;2023-04-23T03:53:53;28.80;;;16.10;;
67352;SDS011;54238;52.278;21.056;2023-04-23T03:56:23;25.60;;;16.20;;
67352;SDS011;54238;52.278;21.056;2023-04-23T03:58:50;31.00;;;15.90;;
67352;SDS011;54238;52.278;21.056;2023-04-23T04:01:17;25.20;;;15.40;;
67352;SDS011;54238;52.278;21.056;2023-04-23T04:03:46;24.30;;;14.60;;
67352;SDS011;54238;52.278;21.056;2023-04-23T04:06:16;23.30;;;13.50;;
67352;SDS011;54238;52.278;21.056;2023-04-23T04:08:43;28.90;;;15.10;;
67352;SDS011;54238;52.278;21.056;2023-04-23T04:11:14;24.60;;;13.90;;
67352;SDS011;54238;52.278;21.056;2023-04-23T04:13:44;27.20;;;13.60;;
67352;SDS011;54238;52.278;21.056;2023-04-23T04:16:14;22.70;;;13.70;;
67352;SDS011;54238;52.278;21.056;2023-04-23T04:18:41;19.20;;;13.50;;
67352;SDS011;54238;52.278;21.056;2023-04-23T04:21:10;25.10;;;13.30;;
67352;SDS011;54238;52.278;21.056;2023-04-23T04:23:44;24.00;;;13.30;;
67352;SDS011;54238;52.278;21.056;2023-04-23T04:26:14;18.80;;;12.90;;
67352;SDS011;54238;52.278;21.056;2023-04-23T04:28:48;27.10;;;13.90;;
67352;SDS011;54238;52.278;21.056;2023-04-23T04:31:20;25.10;;;13.80;;
67352;SDS011;54238;52.278;21.056;2023-04-23T04:33:52;27.50;;;12.80;;
67352;SDS011;54238;52.278;21.056;2023-04-23T04:36:24;25.00;;;14.50;;
67352;SDS011;54238;52.278;21.056;2023-04-23T04:39:00;20.20;;;12.20;;
67352;SDS011;54238;52.278;21.056;2023-04-23T04:41:32;27.10;;;14.60;;
67352;SDS011;54238;52.278;21.056;2023-04-23T04:44:04;22.80;;;12.60;;
67352;SDS011;54238;52.278;21.056;2023-04-23T04:46:33;24.50;;;13.00;;
67352;SDS011;54238;52.278;21.056;2023-04-23T04:49:09;23.80;;;13.30;;
67352;SDS011;54238;52.278;21.056;2023-04-23T04:51:39;24.80;;;12.80;;
67352;SDS011;54238;52.278;21.056;2023-04-23T04:54:11;21.10;;;12.00;;
67352;SDS011;54238;52.278;21.056;2023-04-23T04:59:15;28.60;;;13.70;;
67352;SDS011;54238;52.278;21.056;2023-04-23T05:01:55;23.80;;;13.50;;
67352;SDS011;54238;52.278;21.056;2023-04-23T05:04:22;23.70;;;13.30;;
67352;SDS011;54238;52.278;21.056;2023-04-23T05:06:57;25.20;;;13.40;;
67352;SDS011;54238;52.278;21.056;2023-04-23T05:09:26;21.50;;;12.80;;
67352;SDS011;54238;52.278;21.056;2023-04-23T05:11:56;25.30;;;14.00;;
67352;SDS011;54238;52.278;21.056;2023-04-23T05:14:23;25.20;;;14.40;;
67352;SDS011;54238;52.278;21.056;2023-04-23T05:16:52;28.70;;;14.40;;
67352;SDS011;54238;52.278;21.056;2023-04-23T05:19:19;23.00;;;14.40;;
67352;SDS011;54238;52.278;21.056;2023-04-23T05:21:46;21.60;;;12.90;;
67352;SDS011;54238;52.278;21.056;2023-04-23T05:24:18;24.80;;;13.30;;
67352;SDS011;54238;52.278;21.056;2023-04-23T05:26:49;25.40;;;13.70;;
67352;SDS011;54238;52.278;21.056;2023-04-23T05:29:21;21.60;;;13.60;;
67352;SDS011;54238;52.278;21.056;2023-04-23T05:31:51;21.60;;;13.10;;
67352;SDS011;54238;52.278;21.056;2023-04-23T05:34:26;22.90;;;12.70;;
67352;SDS011;54238;52.278;21.056;2023-04-23T05:36:53;27.30;;;13.20;;
67352;SDS011;54238;52.278;21.056;2023-04-23T05:39:20;25.40;;;12.60;;
67352;SDS011;54238;52.278;21.056;2023-04-23T05:41:49;22.40;;;12.90;;
67352;SDS011;54238;52.278;21.056;2023-04-23T05:44:18;23.30;;;12.70;;
67352;SDS011;54238;52.278;21.056;2023-04-23T05:46:46;23.50;;;13.00;;
67352;SDS011;54238;52.278;21.056;2023-04-23T05:49:13;17.40;;;11.80;;
67352;SDS011;54238;52.278;21.056;2023-04-23T05:51:40;21.10;;;12.30;;
67352;SDS011;54238;52.278;21.056;2023-04-23T05:54:07;25.80;;;12.10;;
67352;SDS011;54238;52.278;21.056;2023-04-23T05:56:39;21.90;;;12.70;;
67352;SDS011;54238;52.278;21.056;2023-04-23T05:59:09;23.20;;;12.20;;
67352;SDS011;54238;52.278;21.056;2023-04-23T06:01:41;20.50;;;11.90;;
67352;SDS011;54238;52.278;21.056;2023-04-23T06:04:11;21.80;;;11.20;;
67352;SDS011;54238;52.278;21.056;2023-04-23T06:06:38;17.50;;;10.30;;
67352;SDS011;54238;52.278;21.056;2023-04-23T06:09:05;20.80;;;11.40;;
67352;SDS011;54238;52.278;21.056;2023-04-23T06:11:37;22.90;;;10.80;;
67352;SDS011;54238;52.278;21.056;2023-04-23T06:14:05;18.50;;;10.80;;
67352;SDS011;54238;52.278;21.056;2023-04-23T06:16:34;18.40;;;11.30;;
67352;SDS011;54238;52.278;21.056;2023-04-23T06:19:06;21.00;;;11.30;;
67352;SDS011;54238;52.278;21.056;2023-04-23T06:21:33;21.60;;;11.20;;
67352;SDS011;54238;52.278;21.056;2023-04-23T06:24:03;16.70;;;10.20;;
67352;SDS011;54238;52.278;21.056;2023-04-23T06:26:33;15.50;;;9.60;;
67352;SDS011;54238;52.278;21.056;2023-04-23T06:29:04;17.70;;;9.30;;
67352;SDS011;54238;52.278;21.056;2023-04-23T06:31:36;18.20;;;10.20;;
67352;SDS011;54238;52.278;21.056;2023-04-23T06:34:08;15.40;;;9.50;;
67352;SDS011;54238;52.278;21.056;2023-04-23T06:36:37;17.80;;;8.60;;
67352;SDS011;54238;52.278;21.056;2023-04-23T06:39:04;16.30;;;8.80;;
67352;SDS011;54238;52.278;21.056;2023-04-23T06:41:32;14.10;;;8.50;;
67352;SDS011;54238;52.278;21.056;2023-04-23T06:43:58;15.70;;;8.50;;
67352;SDS011;54238;52.278;21.056;2023-04-23T06:46:28;14.70;;;9.00;;
67352;SDS011;54238;52.278;21.056;2023-04-23T06:48:58;19.80;;;7.80;;
67352;SDS011;54238;52.278;21.056;2023-04-23T06:51:27;14.40;;;8.40;;
67352;SDS011;54238;52.278;21.056;2023-04-23T06:53:54;14.30;;;8.10;;
67352;SDS011;54238;52.278;21.056;2023-04-23T06:56:21;14.50;;;8.30;;
67352;SDS011;54238;52.278;21.056;2023-04-23T06:58:52;17.50;;;8.70;;
67352;SDS011;54238;52.278;21.056;2023-04-23T07:01:24;16.40;;;8.30;;
67352;SDS011;54238;52.278;21.056;2023-04-23T07:03:53;13.10;;;8.40;;
67352;SDS011;54238;52.278;21.056;2023-04-23T07:06:20;16.30;;;8.30;;
67352;SDS011;54238;52.278;21.056;2023-04-23T07:08:48;14.00;;;7.60;;
67352;SDS011;54238;52.278;21.056;2023-04-23T07:11:17;26.30;;;8.70;;
67352;SDS011;54238;52.278;21.056;2023-04-23T07:13:46;12.40;;;8.00;;
67352;SDS011;54238;52.278;21.056;2023-04-23T07:16:13;12.40;;;8.30;;
67352;SDS011;54238;52.278;21.056;2023-04-23T07:18:42;15.90;;;8.70;;
67352;SDS011;54238;52.278;21.056;2023-04-23T07:21:09;17.00;;;8.90;;
67352;SDS011;54238;52.278;21.056;2023-04-23T07:23:41;16.70;;;8.90;;
67352;SDS011;54238;52.278;21.056;2023-04-23T07:26:10;13.10;;;8.20;;
67352;SDS011;54238;52.278;21.056;2023-04-23T07:28:39;13.30;;;8.30;;
67352;SDS011;54238;52.278;21.056;2023-04-23T07:31:06;15.50;;;8.30;;
67352;SDS011;54238;52.278;21.056;2023-04-23T07:33:34;13.30;;;7.60;;
67352;SDS011;54238;52.278;21.056;2023-04-23T07:36:04;13.40;;;7.70;;
67352;SDS011;54238;52.278;21.056;2023-04-23T07:38:31;12.30;;;7.90;;
67352;SDS011;54238;52.278;21.056;2023-04-23T07:41:00;15.80;;;9.00;;
67352;SDS011;54238;52.278;21.056;2023-04-23T07:43:27;12.30;;;6.80;;
67352;SDS011;54238;52.278;21.056;2023-04-23T07:45:54;12.10;;;7.50;;
67352;SDS011;54238;52.278;21.056;2023-04-23T07:48:21;15.10;;;8.00;;
67352;SDS011;54238;52.278;21.056;2023-04-23T07:50:53;11.90;;;7.10;;
67352;SDS011;54238;52.278;21.056;2023-04-23T07:53:24;15.40;;;7.60;;
67352;SDS011;54238;52.278;21.056;2023-04-23T07:55:57;13.50;;;7.40;;
67352;SDS011;54238;52.278;21.056;2023-04-23T07:58:27;12.80;;;6.20;;
67352;SDS011;54238;52.278;21.056;2023-04-23T08:00:54;12.50;;;6.60;;
67352;SDS011;54238;52.278;21.056;2023-04-23T08:03:23;16.00;;;7.50;;
67352;SDS011;54238;52.278;21.056;2023-04-23T08:05:51;11.70;;;7.10;;
67352;SDS011;54238;52.278;21.056;2023-04-23T08:08:20;12.30;;;6.60;;
67352;SDS011;54238;52.278;21.056;2023-04-23T08:10:54;14.40;;;7.00;;
67352;SDS011;54238;52.278;21.056;2023-04-23T08:15:55;9.90;;;6.20;;
67352;SDS011;54238;52.278;21.056;2023-04-23T08:18:24;8.50;;;6.70;;
67352;SDS011;54238;52.278;21.056;2023-04-23T08:20:53;10.50;;;5.80;;
67352;SDS011;54238;52.278;21.056;2023-04-23T08:23:23;10.80;;;6.40;;
67352;SDS011;54238;52.278;21.056;2023-04-23T08:25:53;10.40;;;6.40;;
67352;SDS011;54238;52.278;21.056;2023-04-23T08:28:25;11.20;;;6.60;;
67352;SDS011;54238;52.278;21.056;2023-04-23T08:30:55;9.70;;;6.20;;
67352;SDS011;54238;52.278;21.056;2023-04-23T08:33:23;7.10;;;5.60;;
67352;SDS011;54238;52.278;21.056;2023-04-23T08:35:59;16.20;;;6.30;;
67352;SDS011;54238;52.278;21.056;2023-04-23T08:38:27;11.50;;;5.60;;
67352;SDS011;54238;52.278;21.056;2023-04-23T08:40:57;12.90;;;5.90;;
67352;SDS011;54238;52.278;21.056;2023-04-23T08:43:46;11.80;;;5.30;;
67352;SDS011;54238;52.278;21.056;2023-04-23T08:46:27;8.40;;;5.00;;
67352;SDS011;54238;52.278;21.056;2023-04-23T08:49:01;11.60;;;5.10;;
67352;SDS011;54238;52.278;21.056;2023-04-23T08:51:35;9.80;;;5.90;;
67352;SDS011;54238;52.278;21.056;2023-04-23T08:54:14;6.50;;;4.90;;
67352;SDS011;54238;52.278;21.056;2023-04-23T08:56:48;11.60;;;5.50;;
67352;SDS011;54238;52.278;21.056;2023-04-23T08:59:25;7.80;;;4.20;;
67352;SDS011;54238;52.278;21.056;2023-04-23T09:01:59;9.50;;;4.90;;
67352;SDS011;54238;52.278;21.056;2023-04-23T09:04:34;10.10;;;5.00;;
67352;SDS011;54238;52.278;21.056;2023-04-23T09:07:06;9.00;;;4.20;;
67352;SDS011;54238;52.278;21.056;2023-04-23T09:09:42;9.70;;;4.40;;
67352;SDS011;54238;52.278;21.056;2023-04-23T09:12:10;9.30;;;4.30;;
67352;SDS011;54238;52.278;21.056;2023-04-23T09:14:41;7.80;;;4.10;;
67352;SDS011;54238;52.278;21.056;2023-04-23T09:17:08;7.00;;;3.50;;
67352;SDS011;54238;52.278;21.056;2023-04-23T09:19:38;10.90;;;4.10;;
67352;SDS011;54238;52.278;21.056;2023-04-23T09:22:11;6.10;;;3.70;;
67352;SDS011;54238;52.278;21.056;2023-04-23T09:24:41;10.30;;;4.50;;
67352;SDS011;54238;52.278;21.056;2023-04-23T09:27:09;7.90;;;4.10;;
67352;SDS011;54238;52.278;21.056;2023-04-23T09:29:43;7.50;;;3.90;;
67352;SDS011;54238;52.278;21.056;2023-04-23T09:32:12;6.40;;;4.10;;
67352;SDS011;54238;52.278;21.056;2023-04-23T09:34:39;4.90;;;3.90;;
67352;SDS011;54238;52.278;21.056;2023-04-23T09:37:11;5.00;;;3.60;;
67352;SDS011;54238;52.278;21.056;2023-04-23T09:39:42;6.20;;;3.60;;
67352;SDS011;54238;52.278;21.056;2023-04-23T09:42:50;5.70;;;3.90;;
67352;SDS011;54238;52.278;21.056;2023-04-23T09:45:23;6.90;;;3.90;;
67352;SDS011;54238;52.278;21.056;2023-04-23T09:47:57;4.20;;;3.20;;
67352;SDS011;54238;52.278;21.056;2023-04-23T09:53:08;6.10;;;3.80;;
67352;SDS011;54238;52.278;21.056;2023-04-23T09:55:39;6.10;;;3.80;;
67352;SDS011;54238;52.278;21.056;2023-04-23T09:58:14;5.20;;;3.80;;
67352;SDS011;54238;52.278;21.056;2023-04-23T10:00:41;6.40;;;3.70;;
67352;SDS011;54238;52.278;21.056;2023-04-23T10:03:11;4.20;;;3.20;;
67352;SDS011;54238;52.278;21.056;2023-04-23T10:05:53;7.90;;;3.60;;
67352;SDS011;54238;52.278;21.056;2023-04-23T10:08:24;11.60;;;3.80;;
67352;SDS011;54238;52.278;21.056;2023-04-23T10:10:59;9.60;;;3.80;;
67352;SDS011;54238;52.278;21.056;2023-04-23T10:13:26;5.60;;;4.20;;
67352;SDS011;54238;52.278;21.056;2023-04-23T10:16:04;5.80;;;3.60;;
67352;SDS011;54238;52.278;21.056;2023-04-23T10:18:37;9.10;;;3.90;;
67352;SDS011;54238;52.278;21.056;2023-04-23T10:21:05;7.40;;;4.00;;
67352;SDS011;54238;52.278;21.056;2023-04-23T10:23:34;5.80;;;3.30;;
67352;SDS011;54238;52.278;21.056;2023-04-23T10:26:04;7.10;;;4.20;;
67352;SDS011;54238;52.278;21.056;2023-04-23T10:28:35;6.30;;;3.80;;
67352;SDS011;54238;52.278;21.056;2023-04-23T10:31:07;4.50;;;3.30;;
67352;SDS011;54238;52.278;21.056;2023-04-23T10:33:36;4.60;;;3.20;;
67352;SDS011;54238;52.278;21.056;2023-04-23T10:36:05;6.60;;;3.80;;
67352;SDS011;54238;52.278;21.056;2023-04-23T10:38:33;6.60;;;3.50;;
67352;SDS011;54238;52.278;21.056;2023-04-23T10:41:02;6.80;;;4.10;;
67352;SDS011;54238;52.278;21.056;2023-04-23T10:43:35;6.10;;;3.60;;
67352;SDS011;54238;52.278;21.056;2023-04-23T10:46:02;6.10;;;3.80;;
67352;SDS011;54238;52.278;21.056;2023-04-23T10:49:13;7.80;;;3.70;;
67352;SDS011;54238;52.278;21.056;2023-04-23T10:51:48;7.40;;;3.60;;
67352;SDS011;54238;52.278;21.056;2023-04-23T10:54:28;5.10;;;3.80;;
67352;SDS011;54238;52.278;21.056;2023-04-23T10:57:01;6.30;;;3.40;;
67352;SDS011;54238;52.278;21.056;2023-04-23T10:59:50;5.40;;;3.40;;
67352;SDS011;54238;52.278;21.056;2023-04-23T11:02:23;6.10;;;3.70;;
67352;SDS011;54238;52.278;21.056;2023-04-23T11:04:57;4.70;;;3.50;;
67352;SDS011;54238;52.278;21.056;2023-04-23T11:07:31;6.20;;;3.50;;
67352;SDS011;54238;52.278;21.056;2023-04-23T11:10:12;8.30;;;3.50;;
67352;SDS011;54238;52.278;21.056;2023-04-23T11:12:43;5.30;;;3.90;;
67352;SDS011;54238;52.278;21.056;2023-04-23T11:15:12;4.70;;;3.20;;
67352;SDS011;54238;52.278;21.056;2023-04-23T11:20:21;9.60;;;3.40;;
67352;SDS011;54238;52.278;21.056;2023-04-23T11:22:53;6.70;;;3.90;;
67352;SDS011;54238;52.278;21.056;2023-04-23T11:25:25;6.30;;;3.30;;
67352;SDS011;54238;52.278;21.056;2023-04-23T11:27:55;5.20;;;3.60;;
67352;SDS011;54238;52.278;21.056;2023-04-23T11:30:30;5.30;;;3.40;;
67352;SDS011;54238;52.278;21.056;2023-04-23T11:33:00;5.60;;;3.20;;
67352;SDS011;54238;52.278;21.056;2023-04-23T11:35:30;4.10;;;3.50;;
67352;SDS011;54238;52.278;21.056;2023-04-23T11:38:12;5.40;;;3.20;;
67352;SDS011;54238;52.278;21.056;2023-04-23T11:40:45;8.30;;;3.10;;
67352;SDS011;54238;52.278;21.056;2023-04-23T11:43:17;4.50;;;3.30;;
67352;SDS011;54238;52.278;21.056;2023-04-23T11:45:49;5.10;;;3.40;;
67352;SDS011;54238;52.278;21.056;2023-04-23T11:48:20;6.80;;;2.90;;
67352;SDS011;54238;52.278;21.056;2023-04-23T11:50:52;6.50;;;3.00;;
67352;SDS011;54238;52.278;21.056;2023-04-23T11:53:26;5.30;;;3.40;;
67352;SDS011;54238;52.278;21.056;2023-04-23T11:55:54;4.60;;;3.30;;
67352;SDS011;54238;52.278;21.056;2023-04-23T11:58:21;5.20;;;3.10;;
67352;SDS011;54238;52.278;21.056;2023-04-23T12:00:56;4.40;;;2.90;;
67352;SDS011;54238;52.278;21.056;2023-04-23T12:03:30;5.70;;;2.80;;
67352;SDS011;54238;52.278;21.056;2023-04-23T12:05:57;3.70;;;3.10;;
67352;SDS011;54238;52.278;21.056;2023-04-23T12:08:24;6.30;;;3.20;;
67352;SDS011;54238;52.278;21.056;2023-04-23T12:11:02;3.60;;;2.60;;
67352;SDS011;54238;52.278;21.056;2023-04-23T12:13:34;4.00;;;3.00;;
67352;SDS011;54238;52.278;21.056;2023-04-23T12:16:03;5.50;;;3.10;;
67352;SDS011;54238;52.278;21.056;2023-04-23T12:18:33;4.20;;;2.80;;
67352;SDS011;54238;52.278;21.056;2023-04-23T12:21:09;7.00;;;2.70;;
67352;SDS011;54238;52.278;21.056;2023-04-23T12:23:40;2.90;;;2.60;;
67352;SDS011;54238;52.278;21.056;2023-04-23T12:26:11;4.20;;;2.80;;
67352;SDS011;54238;52.278;21.056;2023-04-23T12:33:29;6.00;;;2.90;;
67352;SDS011;54238;52.278;21.056;2023-04-23T12:35:59;5.90;;;3.00;;
67352;SDS011;54238;52.278;21.056;2023-04-23T12:38:34;5.30;;;2.80;;
67352;SDS011;54238;52.278;21.056;2023-04-23T12:41:03;5.90;;;3.00;;
67352;SDS011;54238;52.278;21.056;2023-04-23T12:43:30;6.00;;;3.30;;
67352;SDS011;54238;52.278;21.056;2023-04-23T12:46:00;3.30;;;2.80;;
67352;SDS011;54238;52.278;21.056;2023-04-23T12:48:31;5.20;;;3.10;;
67352;SDS011;54238;52.278;21.056;2023-04-23T12:51:01;7.00;;;3.70;;
67352;SDS011;54238;52.278;21.056;2023-04-23T12:53:32;3.30;;;2.80;;
67352;SDS011;54238;52.278;21.056;2023-04-23T12:56:04;4.70;;;3.00;;
67352;SDS011;54238;52.278;21.056;2023-04-23T12:58:31;4.20;;;3.00;;
67352;SDS011;54238;52.278;21.056;2023-04-23T13:00:59;6.90;;;3.00;;
67352;SDS011;54238;52.278;21.056;2023-04-23T13:03:28;3.50;;;3.00;;
67352;SDS011;54238;52.278;21.056;2023-04-23T13:06:03;4.40;;;2.70;;
67352;SDS011;54238;52.278;21.056;2023-04-23T13:08:32;5.90;;;3.20;;
67352;SDS011;54238;52.278;21.056;2023-04-23T13:13:42;7.50;;;3.20;;
67352;SDS011;54238;52.278;21.056;2023-04-23T13:16:21;4.30;;;3.10;;
67352;SDS011;54238;52.278;21.056;2023-04-23T13:18:48;5.50;;;3.30;;
67352;SDS011;54238;52.278;21.056;2023-04-23T13:21:18;4.80;;;3.00;;
67352;SDS011;54238;52.278;21.056;2023-04-23T13:23:46;3.20;;;2.90;;
67352;SDS011;54238;52.278;21.056;2023-04-23T13:26:15;4.30;;;3.20;;
67352;SDS011;54238;52.278;21.056;2023-04-23T13:28:43;7.60;;;3.20;;
67352;SDS011;54238;52.278;21.056;2023-04-23T13:31:15;7.80;;;3.20;;
67352;SDS011;54238;52.278;21.056;2023-04-23T13:33:42;4.40;;;3.10;;
67352;SDS011;54238;52.278;21.056;2023-04-23T13:36:17;4.80;;;3.20;;
67352;SDS011;54238;52.278;21.056;2023-04-23T13:38:47;4.80;;;3.20;;
67352;SDS011;54238;52.278;21.056;2023-04-23T13:41:17;4.40;;;2.90;;
67352;SDS011;54238;52.278;21.056;2023-04-23T13:43:44;3.60;;;3.10;;
67352;SDS011;54238;52.278;21.056;2023-04-23T13:46:11;4.20;;;3.00;;
67352;SDS011;54238;52.278;21.056;2023-04-23T13:48:40;4.30;;;3.10;;
67352;SDS011;54238;52.278;21.056;2023-04-23T13:51:10;5.60;;;2.80;;
67352;SDS011;54238;52.278;21.056;2023-04-23T13:53:39;6.00;;;3.00;;
67352;SDS011;54238;52.278;21.056;2023-04-23T13:56:11;4.30;;;3.40;;
67352;SDS011;54238;52.278;21.056;2023-04-23T13:58:38;5.80;;;2.70;;
67352;SDS011;54238;52.278;21.056;2023-04-23T14:01:15;6.70;;;3.00;;
67352;SDS011;54238;52.278;21.056;2023-04-23T14:03:47;5.10;;;3.40;;
67352;SDS011;54238;52.278;21.056;2023-04-23T14:06:14;5.30;;;3.40;;
67352;SDS011;54238;52.278;21.056;2023-04-23T14:08:43;4.70;;;3.20;;
67352;SDS011;54238;52.278;21.056;2023-04-23T14:11:11;6.80;;;2.70;;
67352;SDS011;54238;52.278;21.056;2023-04-23T14:13:38;5.80;;;3.00;;
67352;SDS011;54238;52.278;21.056;2023-04-23T14:16:09;6.20;;;3.20;;
67352;SDS011;54238;52.278;21.056;2023-04-23T14:18:39;5.10;;;3.10;;
67352;SDS011;54238;52.278;21.056;2023-04-23T14:21:08;5.00;;;3.30;;
67352;SDS011;54238;52.278;21.056;2023-04-23T14:23:44;4.00;;;3.10;;
67352;SDS011;54238;52.278;21.056;2023-04-23T14:26:31;5.20;;;3.30;;
67352;SDS011;54238;52.278;21.056;2023-04-23T14:29:08;4.30;;;3.30;;
67352;SDS011;54238;52.278;21.056;2023-04-23T14:31:42;5.10;;;3.30;;
67352;SDS011;54238;52.278;21.056;2023-04-23T14:34:13;7.50;;;3.50;;
67352;SDS011;54238;52.278;21.056;2023-04-23T14:36:45;4.90;;;3.30;;
67352;SDS011;54238;52.278;21.056;2023-04-23T14:39:17;3.60;;;2.90;;
67352;SDS011;54238;52.278;21.056;2023-04-23T14:41:52;5.60;;;3.20;;
67352;SDS011;54238;52.278;21.056;2023-04-23T14:44:24;4.60;;;2.70;;
67352;SDS011;54238;52.278;21.056;2023-04-23T14:47:00;6.10;;;3.40;;
67352;SDS011;54238;52.278;21.056;2023-04-23T14:49:27;4.10;;;3.20;;
67352;SDS011;54238;52.278;21.056;2023-04-23T14:51:54;4.90;;;3.10;;
67352;SDS011;54238;52.278;21.056;2023-04-23T14:54:21;8.00;;;3.30;;
67352;SDS011;54238;52.278;21.056;2023-04-23T14:56:56;4.40;;;3.30;;
67352;SDS011;54238;52.278;21.056;2023-04-23T14:59:23;6.60;;;3.50;;
67352;SDS011;54238;52.278;21.056;2023-04-23T15:01:58;5.60;;;3.50;;
67352;SDS011;54238;52.278;21.056;2023-04-23T15:04:30;4.90;;;3.30;;
67352;SDS011;54238;52.278;21.056;2023-04-23T15:06:59;5.60;;;3.20;;